Time;durP1;ratioP1;P1;durP2;ratioP2;P2;SDS_P1;SDS_P2;PMS_P1;PMS_P2;Temp;Humidity;BMP_temperature;BMP_pressure;BME280_temperature;BME280_humidity;BME280_pressure;Samples;Min_cycle;Max_cycle;Signal;HPM_P1;HPM_P2
2023/09/15 00:00:24;;;;;;;9.65;2.80;;;13.60;6.40;;;;;;5101247;28;20100;-58
2023/09/15 00:02:58;;;;;;;6.78;2.35;;;13.70;6.50;;;;;;5101008;28;20059;-58
2023/09/15 00:05:26;;;;;;;11.60;3.45;;;13.70;6.60;;;;;;5100260;28;20046;-58
2023/09/15 00:07:52;;;;;;;9.02;2.40;;;13.60;6.30;;;;;;5101355;28;20451;-57
2023/09/15 00:10:21;;;;;;;7.28;2.70;;;13.60;5.90;;;;;;5100100;28;20036;-58
2023/09/15 00:12:47;;;;;;;7.47;2.40;;;13.60;5.90;;;;;;5101440;28;20048;-57
2023/09/15 00:15:15;;;;;;;8.45;2.45;;;13.60;7.30;;;;;;5100184;28;20040;-56
2023/09/15 00:17:42;;;;;;;7.30;2.83;;;13.50;8.50;;;;;;5100661;28;20044;-58
2023/09/15 00:20:13;;;;;;;6.97;2.90;;;13.50;8.50;;;;;;5100388;28;20040;-58
2023/09/15 00:22:42;;;;;;;9.03;2.70;;;13.40;7.30;;;;;;5099950;28;20093;-58
2023/09/15 00:25:09;;;;;;;7.85;2.58;;;13.40;7.50;;;;;;5100843;28;20040;-57
2023/09/15 00:27:35;;;;;;;7.47;2.10;;;13.50;8.70;;;;;;5099600;28;20047;-58
2023/09/15 00:30:02;;;;;;;7.25;2.40;;;13.40;8.30;;;;;;5100994;28;20036;-57
2023/09/15 00:32:27;;;;;;;7.78;2.65;;;13.50;10.30;;;;;;5099927;28;20052;-58
2023/09/15 00:34:53;;;;;;;6.20;2.45;;;13.40;7.60;;;;;;5100072;28;20150;-57
2023/09/15 00:37:20;;;;;;;5.50;2.25;;;13.40;8.10;;;;;;5100359;28;20054;-57
2023/09/15 00:39:45;;;;;;;6.32;2.38;;;13.40;9.80;;;;;;5099430;28;20052;-57
2023/09/15 00:42:12;;;;;;;7.45;2.22;;;13.40;8.50;;;;;;5100536;28;20064;-56
2023/09/15 00:44:37;;;;;;;8.68;2.55;;;13.30;8.40;;;;;;5099291;28;20514;-58
2023/09/15 00:47:03;;;;;;;7.43;2.50;;;13.30;9.60;;;;;;5100743;28;20071;-57
2023/09/15 00:49:29;;;;;;;7.95;2.50;;;13.20;9.40;;;;;;5099096;28;20062;-57
2023/09/15 00:51:55;;;;;;;11.30;2.47;;;13.20;10.60;;;;;;5100062;28;20040;-57
2023/09/15 00:54:21;;;;;;;7.95;2.40;;;13.20;12.20;;;;;;5098421;28;20078;-57
2023/09/15 00:56:47;;;;;;;7.35;2.45;;;13.20;12.10;;;;;;5099250;28;20074;-57
2023/09/15 00:59:13;;;;;;;8.75;2.30;;;13.10;13.30;;;;;;5100165;28;20096;-57
2023/09/15 01:01:41;;;;;;;9.10;2.67;;;13.10;13.10;;;;;;5098932;28;20040;-57
2023/09/15 01:04:08;;;;;;;9.95;2.45;;;13.10;12.90;;;;;;5100446;28;20106;-57
2023/09/15 01:06:37;;;;;;;7.13;2.80;;;13.00;13.20;;;;;;5099015;28;20055;-57
2023/09/15 01:09:05;;;;;;;7.95;2.58;;;13.00;15.30;;;;;;5100006;28;20039;-57
2023/09/15 01:11:31;;;;;;;10.82;2.50;;;13.10;16.70;;;;;;5099644;28;20047;-57
2023/09/15 01:13:57;;;;;;;8.02;2.70;;;13.00;16.00;;;;;;5098843;28;20040;-57
2023/09/15 01:16:33;;;;;;;7.25;2.60;;;13.00;15.90;;;;;;5099785;28;20071;-57
2023/09/15 01:19:07;;;;;;;5.55;2.22;;;12.90;16.70;;;;;;5098369;28;20051;-57
2023/09/15 01:21:47;;;;;;;9.75;2.67;;;12.90;18.30;;;;;;5100001;28;20075;-58
2023/09/15 01:24:41;;;;;;;8.55;2.60;;;13.00;18.40;;;;;;5099283;28;20441;-57
2023/09/15 01:27:31;;;;;;;7.32;2.45;;;12.90;17.70;;;;;;5098637;28;20036;-58
2023/09/15 01:30:00;;;;;;;6.13;2.40;;;12.90;18.40;;;;;;5100289;28;20459;-57
2023/09/15 01:32:28;;;;;;;7.05;2.85;;;12.90;17.20;;;;;;5098998;28;20044;-57
2023/09/15 01:34:54;;;;;;;7.75;2.70;;;12.90;17.60;;;;;;5099436;28;20102;-58
2023/09/15 01:37:20;;;;;;;9.35;2.85;;;12.80;18.80;;;;;;5099657;28;20531;-58
2023/09/15 01:39:47;;;;;;;7.35;2.80;;;12.80;18.50;;;;;;5098595;28;20040;-57
2023/09/15 01:42:13;;;;;;;8.02;2.70;;;12.80;18.30;;;;;;5099679;28;20044;-56
2023/09/15 01:44:39;;;;;;;7.43;2.90;;;12.80;18.50;;;;;;5098718;28;20055;-57
2023/09/15 01:47:08;;;;;;;6.97;2.50;;;12.80;19.30;;;;;;5102402;28;20115;-58
2023/09/15 01:49:34;;;;;;;10.73;2.97;;;12.80;19.20;;;;;;5102976;28;20048;-57
2023/09/15 01:52:02;;;;;;;8.75;2.63;;;12.80;20.20;;;;;;5103607;28;20051;-58
2023/09/15 01:54:27;;;;;;;6.85;2.60;;;12.70;20.90;;;;;;5103170;28;20059;-56
2023/09/15 01:56:53;;;;;;;9.10;3.10;;;12.70;23.00;;;;;;5102445;28;20052;-58
2023/09/15 01:59:19;;;;;;;9.38;2.65;;;12.70;21.80;;;;;;5103427;28;20044;-58
2023/09/15 02:01:45;;;;;;;7.43;2.85;;;12.70;24.60;;;;;;5102182;28;20127;-58
2023/09/15 02:04:10;;;;;;;7.90;2.60;;;12.70;22.80;;;;;;5102583;28;20078;-58
2023/09/15 02:06:36;;;;;;;7.35;2.33;;;12.60;23.70;;;;;;5102475;28;20076;-57
2023/09/15 02:09:06;;;;;;;8.93;3.13;;;12.60;24.20;;;;;;5103283;28;20047;-57
2023/09/15 02:11:32;;;;;;;7.72;2.63;;;12.60;26.60;;;;;;5103114;28;20104;-57
2023/09/15 02:13:58;;;;;;;7.57;2.58;;;12.60;26.00;;;;;;5102427;28;20036;-58
2023/09/15 02:16:28;;;;;;;9.52;3.03;;;12.60;25.00;;;;;;5103253;28;20063;-57
2023/09/15 02:18:53;;;;;;;7.55;2.55;;;12.60;26.10;;;;;;5101891;28;20101;-58
2023/09/15 02:21:19;;;;;;;9.05;2.92;;;12.60;26.50;;;;;;5103647;28;20047;-58
2023/09/15 02:23:44;;;;;;;5.40;2.40;;;12.60;26.40;;;;;;5102278;28;20076;-55
2023/09/15 02:26:10;;;;;;;7.68;2.70;;;12.50;27.70;;;;;;5102789;28;20110;-57
2023/09/15 02:28:36;;;;;;;7.95;2.90;;;12.50;26.90;;;;;;5102826;28;20040;-56
2023/09/15 02:31:06;;;;;;;8.10;2.95;;;12.40;28.30;;;;;;5101884;28;20096;-57
2023/09/15 02:33:33;;;;;;;9.93;2.85;;;12.50;28.50;;;;;;5102997;28;20040;-57
2023/09/15 02:35:58;;;;;;;8.20;2.97;;;12.40;30.20;;;;;;5101673;28;20099;-57
2023/09/15 02:38:24;;;;;;;5.65;2.42;;;12.40;28.80;;;;;;5103135;28;20056;-55
2023/09/15 02:40:50;;;;;;;6.90;2.67;;;12.50;27.60;;;;;;5101864;28;20044;-56
2023/09/15 02:43:15;;;;;;;9.52;3.58;;;12.40;28.30;;;;;;5102932;28;20449;-57
2023/09/15 02:45:41;;;;;;;7.75;2.78;;;12.50;28.10;;;;;;5102463;28;20032;-56
2023/09/15 02:48:07;;;;;;;7.47;2.65;;;12.50;30.60;;;;;;5101881;28;20032;-56
2023/09/15 02:50:32;;;;;;;6.88;2.47;;;12.50;29.40;;;;;;5100932;28;20040;-56
2023/09/15 02:52:59;;;;;;;7.28;2.60;;;12.40;29.90;;;;;;5101346;28;20081;-57
2023/09/15 02:55:25;;;;;;;8.02;2.60;;;12.40;28.70;;;;;;5101267;28;20530;-57
2023/09/15 02:57:55;;;;;;;9.32;2.70;;;12.40;29.40;;;;;;5101245;28;20048;-56
2023/09/15 03:00:21;;;;;;;7.28;2.63;;;12.40;31.40;;;;;;5102296;28;20177;-56
2023/09/15 03:02:49;;;;;;;8.82;3.55;;;12.40;29.80;;;;;;5102055;28;20043;-56
2023/09/15 03:05:15;;;;;;;7.68;3.08;;;12.30;28.40;;;;;;5101656;28;20040;-57
2023/09/15 03:07:42;;;;;;;8.23;2.67;;;12.30;28.10;;;;;;5102229;28;20096;-56
2023/09/15 03:10:09;;;;;;;7.57;2.90;;;12.30;28.20;;;;;;5101082;28;20040;-57
2023/09/15 03:12:36;;;;;;;7.38;2.70;;;12.30;29.70;;;;;;5102325;28;20131;-57
2023/09/15 03:15:05;;;;;;;7.53;2.80;;;12.30;30.20;;;;;;5101286;28;20028;-56
2023/09/15 03:17:31;;;;;;;7.75;2.60;;;12.20;32.40;;;;;;5102166;28;20036;-57
2023/09/15 03:19:57;;;;;;;10.18;2.95;;;12.20;30.40;;;;;;5101671;28;20069;-56
2023/09/15 03:22:23;;;;;;;7.40;2.88;;;12.30;32.40;;;;;;5101022;28;20043;-57
2023/09/15 03:24:48;;;;;;;9.90;3.03;;;12.20;34.10;;;;;;5101885;28;20044;-56
2023/09/15 03:27:14;;;;;;;10.38;3.92;;;12.30;31.60;;;;;;5100551;28;20036;-58
2023/09/15 03:29:39;;;;;;;7.95;2.58;;;12.20;30.00;;;;;;5102236;28;20096;-56
2023/09/15 03:32:05;;;;;;;7.72;2.53;;;12.30;31.40;;;;;;5100818;28;20564;-59
2023/09/15 03:34:31;;;;;;;6.85;2.88;;;12.20;30.20;;;;;;5101998;28;20046;-57
2023/09/15 03:36:56;;;;;;;7.72;2.85;;;12.20;30.70;;;;;;5101435;28;20325;-59
2023/09/15 03:39:22;;;;;;;8.40;2.80;;;12.20;29.60;;;;;;5100876;28;20033;-57
2023/09/15 03:41:48;;;;;;;8.23;3.03;;;12.20;30.00;;;;;;5101413;28;20043;-56
2023/09/15 03:44:13;;;;;;;8.18;3.20;;;12.20;31.00;;;;;;5100665;28;20040;-57
2023/09/15 03:46:39;;;;;;;7.00;2.70;;;12.20;30.70;;;;;;5101633;28;20044;-57
2023/09/15 03:49:05;;;;;;;6.82;2.80;;;12.20;31.60;;;;;;5100138;28;20078;-57
2023/09/15 03:51:31;;;;;;;6.90;2.63;;;12.10;32.00;;;;;;5101581;28;20028;-57
2023/09/15 03:53:56;;;;;;;10.45;3.00;;;12.10;32.10;;;;;;5100709;28;20119;-55
2023/09/15 03:56:23;;;;;;;6.47;2.90;;;12.10;31.80;;;;;;5100649;28;20052;-57
2023/09/15 03:58:49;;;;;;;7.32;2.90;;;12.10;34.30;;;;;;5101188;28;20081;-56
2023/09/15 04:01:19;;;;;;;5.30;2.55;;;12.10;34.10;;;;;;5100187;28;20070;-57
2023/09/15 04:03:46;;;;;;;7.72;2.75;;;12.10;36.10;;;;;;5101458;28;20124;-55
2023/09/15 04:06:11;;;;;;;8.23;3.38;;;12.10;35.00;;;;;;5100017;28;20083;-57
2023/09/15 04:08:37;;;;;;;9.45;2.80;;;12.00;34.80;;;;;;5100671;28;20036;-56
2023/09/15 04:11:03;;;;;;;9.77;3.03;;;12.10;36.40;;;;;;5100190;28;20036;-56
2023/09/15 04:13:29;;;;;;;10.35;3.10;;;12.00;36.10;;;;;;5100632;28;20044;-56
2023/09/15 04:15:56;;;;;;;6.78;2.80;;;12.00;39.40;;;;;;5101164;28;20044;-56
2023/09/15 04:18:22;;;;;;;7.15;2.90;;;12.00;38.30;;;;;;5099450;28;20095;-57
2023/09/15 04:20:51;;;;;;;10.27;3.05;;;12.00;39.10;;;;;;5101064;28;20058;-56
2023/09/15 04:23:17;;;;;;;9.05;3.17;;;11.90;41.60;;;;;;5099555;28;20425;-57
2023/09/15 04:25:43;;;;;;;8.57;2.85;;;11.90;40.80;;;;;;5101062;28;20051;-57
2023/09/15 04:28:08;;;;;;;9.63;3.10;;;11.90;42.40;;;;;;5100038;28;20044;-58
2023/09/15 04:30:34;;;;;;;7.63;2.85;;;11.90;42.40;;;;;;5100185;28;20072;-59
2023/09/15 04:33:00;;;;;;;9.32;4.03;;;11.90;46.00;;;;;;5100397;28;20055;-57
2023/09/15 04:35:27;;;;;;;7.35;2.97;;;11.90;47.90;;;;;;5099567;28;20048;-58
2023/09/15 04:37:54;;;;;;;7.63;2.65;;;11.80;49.30;;;;;;5100467;28;20066;-57
2023/09/15 04:40:20;;;;;;;7.82;3.00;;;11.70;52.10;;;;;;5099336;28;20047;-58
2023/09/15 04:42:45;;;;;;;9.60;3.08;;;11.70;52.80;;;;;;5100830;28;20048;-57
2023/09/15 04:45:11;;;;;;;7.38;3.30;;;11.80;54.80;;;;;;5099754;28;20032;-57
2023/09/15 04:47:38;;;;;;;7.97;3.42;;;11.80;60.80;;;;;;5100124;28;20097;-58
2023/09/15 04:50:06;;;;;;;6.50;3.33;;;11.80;60.20;;;;;;5099909;28;20046;-58
2023/09/15 04:52:31;;;;;;;6.57;3.85;;;11.80;58.70;;;;;;5099195;28;20056;-59
2023/09/15 04:54:57;;;;;;;10.27;3.33;;;11.70;55.40;;;;;;5100245;28;20059;-58
2023/09/15 04:57:23;;;;;;;11.05;3.58;;;11.80;61.10;;;;;;5098943;28;20103;-58
2023/09/15 04:59:49;;;;;;;9.65;4.28;;;11.70;63.10;;;;;;5100550;28;20040;-58
2023/09/15 05:02:15;;;;;;;7.20;4.00;;;11.70;59.50;;;;;;5099185;28;20048;-58
2023/09/15 05:04:41;;;;;;;9.27;3.60;;;11.70;61.10;;;;;;5100208;28;20054;-58
2023/09/15 05:07:07;;;;;;;9.10;4.18;;;11.60;65.20;;;;;;5098411;28;20152;-57
2023/09/15 05:09:32;;;;;;;8.52;4.25;;;11.60;62.70;;;;;;5099175;28;20042;-58
2023/09/15 05:11:58;;;;;;;8.30;3.80;;;11.60;65.10;;;;;;5099871;28;20043;-57
2023/09/15 05:14:24;;;;;;;7.75;3.85;;;11.60;66.20;;;;;;5098803;28;20047;-58
2023/09/15 05:16:49;;;;;;;8.27;3.50;;;11.60;62.60;;;;;;5100303;28;20032;-58
2023/09/15 05:19:15;;;;;;;11.52;4.38;;;11.50;62.90;;;;;;5098771;28;20040;-57
2023/09/15 05:21:41;;;;;;;8.52;4.22;;;11.50;64.10;;;;;;5098838;28;20040;-58
2023/09/15 05:24:07;;;;;;;8.85;3.63;;;11.60;69.10;;;;;;5099619;28;20470;-57
2023/09/15 05:26:34;;;;;;;8.00;3.97;;;11.70;71.90;;;;;;5099053;28;20115;-57
2023/09/15 05:29:03;;;;;;;9.27;4.25;;;11.60;68.00;;;;;;5099874;28;20123;-56
2023/09/15 05:31:29;;;;;;;10.52;4.03;;;11.60;67.10;;;;;;5098690;28;20054;-58
2023/09/15 05:33:55;;;;;;;10.40;4.70;;;11.60;69.30;;;;;;5099929;28;20044;-57
2023/09/15 05:36:21;;;;;;;11.73;4.05;;;11.70;68.90;;;;;;5098370;28;20047;-57
2023/09/15 05:38:50;;;;;;;9.30;4.55;;;11.70;69.40;;;;;;5099716;28;20036;-58
2023/09/15 05:41:16;;;;;;;8.98;4.38;;;11.70;72.60;;;;;;5099268;28;20582;-57
2023/09/15 05:43:42;;;;;;;11.45;5.22;;;11.80;66.80;;;;;;5098793;28;20043;-57
2023/09/15 05:46:08;;;;;;;10.73;5.00;;;11.80;66.10;;;;;;5099483;28;20047;-57
2023/09/15 05:48:34;;;;;;;7.63;3.85;;;11.80;62.60;;;;;;5098115;28;20040;-57
2023/09/15 05:50:59;;;;;;;11.30;4.80;;;11.90;65.40;;;;;;5099631;28;20044;-57
2023/09/15 05:53:25;;;;;;;9.68;4.88;;;11.90;61.40;;;;;;5098686;28;20055;-58
2023/09/15 05:55:51;;;;;;;9.45;4.63;;;11.90;61.60;;;;;;5099493;28;20093;-58
2023/09/15 05:58:16;;;;;;;10.73;4.90;;;12.00;63.90;;;;;;5099072;28;20078;-57
2023/09/15 06:00:42;;;;;;;9.73;5.07;;;12.10;60.90;;;;;;5098823;28;20055;-57
2023/09/15 06:03:09;;;;;;;9.90;5.50;;;12.10;57.10;;;;;;5099450;28;20407;-57
2023/09/15 06:05:36;;;;;;;9.05;4.80;;;12.10;54.70;;;;;;5098225;28;20493;-57
2023/09/15 06:08:03;;;;;;;8.93;4.82;;;12.20;54.10;;;;;;5099648;28;20073;-59
2023/09/15 06:10:29;;;;;;;9.27;4.95;;;12.10;53.10;;;;;;5098420;28;20054;-56
2023/09/15 06:12:55;;;;;;;10.93;4.93;;;12.20;52.60;;;;;;5099404;28;20056;-57
2023/09/15 06:15:21;;;;;;;10.73;4.93;;;12.20;52.60;;;;;;5098716;28;20105;-58
2023/09/15 06:17:48;;;;;;;11.90;5.03;;;12.30;53.80;;;;;;5098532;28;20040;-57
2023/09/15 06:20:14;;;;;;;10.80;5.82;;;12.30;52.00;;;;;;5098647;28;20048;-56
2023/09/15 06:22:39;;;;;;;8.50;4.57;;;12.30;50.50;;;;;;5098076;28;20059;-58
2023/09/15 06:25:05;;;;;;;14.40;7.03;;;12.50;50.90;;;;;;5099224;28;20047;-57
2023/09/15 06:27:34;;;;;;;10.77;5.10;;;12.50;53.30;;;;;;5098180;28;20040;-58
2023/09/15 06:30:00;;;;;;;9.52;5.05;;;12.50;48.70;;;;;;5099441;28;20040;-57
2023/09/15 06:32:26;;;;;;;10.63;5.40;;;12.60;48.00;;;;;;5099809;28;20495;-57
2023/09/15 06:34:52;;;;;;;10.80;4.63;;;12.60;48.00;;;;;;5102284;28;20032;-61
2023/09/15 06:37:18;;;;;;;9.95;5.18;;;12.70;50.50;;;;;;5102951;28;20511;-58
2023/09/15 06:39:44;;;;;;;9.30;5.20;;;12.80;48.30;;;;;;5101710;28;20044;-57
2023/09/15 06:42:10;;;;;;;11.73;5.03;;;12.80;48.10;;;;;;5101499;28;20057;-61
2023/09/15 06:44:36;;;;;;;9.73;5.47;;;12.90;49.30;;;;;;5101730;28;20077;-58
2023/09/15 06:47:03;;;;;;;12.55;6.68;;;12.90;47.60;;;;;;5102820;28;20051;-58
2023/09/15 06:49:30;;;;;;;10.20;5.32;;;12.90;47.30;;;;;;5101729;28;20048;-58
2023/09/15 06:51:56;;;;;;;11.48;5.07;;;13.10;47.80;;;;;;5102113;28;20058;-58
2023/09/15 06:54:22;;;;;;;10.75;5.32;;;13.10;45.80;;;;;;5102204;28;20079;-58
2023/09/15 06:56:49;;;;;;;11.93;4.82;;;13.20;48.70;;;;;;5101369;28;20048;-58
2023/09/15 06:59:14;;;;;;;10.38;4.97;;;13.30;44.40;;;;;;5102480;28;20403;-57
2023/09/15 07:01:40;;;;;;;9.90;4.82;;;13.30;42.00;;;;;;5101034;28;20032;-57
2023/09/15 07:04:06;;;;;;;10.23;4.82;;;13.30;41.00;;;;;;5102732;28;20420;-58
2023/09/15 07:06:32;;;;;;;10.30;5.30;;;13.40;41.80;;;;;;5100217;28;20059;-58
2023/09/15 07:08:58;;;;;;;11.05;5.20;;;13.50;39.60;;;;;;5102103;28;20363;-57
2023/09/15 07:11:24;;;;;;;7.80;4.60;;;13.60;40.10;;;;;;5102240;28;20092;-57
2023/09/15 07:13:50;;;;;;;11.52;4.55;;;13.60;39.00;;;;;;5101274;28;20040;-59
2023/09/15 07:16:16;;;;;;;9.68;5.35;;;13.70;40.20;;;;;;5101995;28;20082;-58
2023/09/15 07:18:41;;;;;;;9.85;5.10;;;13.70;40.50;;;;;;5100447;28;20044;-56
2023/09/15 07:21:07;;;;;;;10.40;5.00;;;13.80;37.50;;;;;;5102376;28;20036;-57
2023/09/15 07:23:33;;;;;;;10.63;4.53;;;13.90;38.00;;;;;;5101077;28;20082;-58
2023/09/15 07:25:59;;;;;;;9.75;4.60;;;14.00;35.90;;;;;;5101872;28;20051;-58
2023/09/15 07:28:25;;;;;;;10.25;5.10;;;14.00;34.50;;;;;;5101531;28;20047;-58
2023/09/15 07:30:50;;;;;;;12.02;5.13;;;14.10;29.40;;;;;;5100730;28;20123;-58
2023/09/15 07:33:16;;;;;;;7.90;4.57;;;14.20;30.00;;;;;;5101839;28;20048;-57
2023/09/15 07:35:42;;;;;;;9.40;4.45;;;14.20;29.70;;;;;;5100653;28;20043;-57
2023/09/15 07:38:08;;;;;;;8.82;4.50;;;14.30;28.60;;;;;;5100551;28;20036;-56
2023/09/15 07:40:34;;;;;;;11.95;4.65;;;14.40;26.70;;;;;;5100740;28;20043;-57
2023/09/15 07:43:00;;;;;;;9.05;4.78;;;14.50;25.70;;;;;;5101398;28;20036;-57
2023/09/15 07:45:27;;;;;;;11.05;4.53;;;14.60;24.70;;;;;;5100339;28;20043;-57
2023/09/15 07:47:52;;;;;;;12.93;6.13;;;14.70;22.40;;;;;;5100902;28;20032;-57
2023/09/15 07:50:18;;;;;;;9.15;4.47;;;14.70;18.90;;;;;;5101309;28;20091;-55
2023/09/15 07:52:45;;;;;;;11.50;4.68;;;14.80;16.60;;;;;;5100345;28;20044;-57
2023/09/15 07:55:11;;;;;;;12.00;5.00;;;14.90;19.50;;;;;;5101111;28;20088;-57
2023/09/15 07:57:39;;;;;;;8.52;3.70;;;14.90;18.30;;;;;;5100161;28;20458;-57
2023/09/15 08:00:07;;;;;;;9.68;4.13;;;15.10;20.50;;;;;;5101125;28;20055;-57
2023/09/15 08:02:33;;;;;;;9.05;4.28;;;15.10;16.40;;;;;;5100868;28;20131;-57
2023/09/15 08:04:58;;;;;;;7.57;3.83;;;15.20;15.10;;;;;;5100282;28;20094;-58
2023/09/15 08:07:24;;;;;;;10.07;4.00;;;15.20;13.20;;;;;;5101158;28;20040;-58
2023/09/15 08:09:50;;;;;;;12.43;3.75;;;15.40;14.00;;;;;;5099929;28;20094;-58
2023/09/15 08:12:19;;;;;;;10.43;3.60;;;15.40;13.20;;;;;;5101256;28;20106;-57
2023/09/15 08:14:46;;;;;;;9.43;3.70;;;15.50;9.10;;;;;;5100014;28;20044;-57
2023/09/15 08:17:12;;;;;;;9.43;3.55;;;15.50;7.60;;;;;;5101113;28;20538;-58
2023/09/15 08:19:39;;;;;;;11.20;3.70;;;15.60;10.20;;;;;;5100246;28;20095;-56
2023/09/15 08:22:05;;;;;;;6.80;3.22;;;15.60;7.70;;;;;;5100055;28;20046;-58
2023/09/15 08:24:31;;;;;;;9.70;3.88;;;15.70;9.00;;;;;;5100848;28;20415;-57
2023/09/15 08:26:56;;;;;;;8.05;3.80;;;15.80;8.80;;;;;;5099535;28;20055;-57
2023/09/15 08:29:22;;;;;;;7.45;3.30;;;15.80;10.60;;;;;;5100641;28;20047;-58
2023/09/15 08:31:48;;;;;;;8.65;3.70;;;15.80;2.70;;;;;;5099623;28;20047;-57
2023/09/15 08:34:14;;;;;;;7.72;3.85;;;15.90;4.00;;;;;;5100833;28;20055;-57
2023/09/15 08:36:39;;;;;;;7.40;3.15;;;16.00;1.90;;;;;;5099809;28;20043;-58
2023/09/15 08:39:05;;;;;;;9.30;3.47;;;16.10;4.50;;;;;;5099849;28;20292;-58
2023/09/15 08:41:39;;;;;;;9.27;3.30;;;16.10;6.60;;;;;;5100386;28;20032;-57
2023/09/15 08:44:07;;;;;;;7.82;3.40;;;16.20;1.00;;;;;;5099218;28;20089;-58
2023/09/15 08:46:35;;;;;;;8.13;3.28;;;16.20;1.00;;;;;;5100515;28;20492;-57
2023/09/15 08:49:01;;;;;;;10.18;3.17;;;16.30;1.00;;;;;;5099022;28;20578;-58
2023/09/15 08:51:28;;;;;;;8.23;3.05;;;16.40;1.00;;;;;;5100529;28;20070;-58
2023/09/15 08:53:57;;;;;;;8.68;3.50;;;16.40;1.00;;;;;;5099779;28;20040;-57
2023/09/15 08:56:23;;;;;;;7.68;3.20;;;16.40;1.00;;;;;;5099028;28;20120;-58
2023/09/15 08:58:50;;;;;;;6.63;2.90;;;16.50;1.00;;;;;;5099917;28;20040;-57
2023/09/15 09:01:18;;;;;;;8.32;2.72;;;16.40;1.00;;;;;;5099057;28;20040;-57
2023/09/15 09:03:43;;;;;;;8.95;3.20;;;16.60;1.00;;;;;;5100367;28;20838;-57
2023/09/15 09:06:12;;;;;;;7.80;3.10;;;16.60;1.00;;;;;;5098881;28;20064;-57
2023/09/15 09:08:41;;;;;;;10.05;3.38;;;16.70;1.00;;;;;;5100037;28;20044;-57
2023/09/15 09:11:07;;;;;;;8.98;3.20;;;16.80;1.00;;;;;;5099646;28;20050;-57
2023/09/15 09:13:33;;;;;;;8.23;3.00;;;16.90;1.00;;;;;;5099251;28;20108;-58
2023/09/15 09:15:59;;;;;;;7.88;3.00;;;17.00;1.00;;;;;;5098665;28;20040;-57
2023/09/15 09:18:26;;;;;;;8.35;2.90;;;17.00;1.00;;;;;;5098516;28;20051;-58
2023/09/15 09:20:52;;;;;;;8.35;3.13;;;17.10;1.00;;;;;;5100208;28;20044;-58
2023/09/15 09:23:19;;;;;;;9.27;3.20;;;17.20;1.00;;;;;;5098965;28;20070;-56
2023/09/15 09:25:45;;;;;;;8.10;3.17;;;17.10;1.00;;;;;;5098860;28;20044;-57
2023/09/15 09:28:11;;;;;;;9.77;3.38;;;17.20;1.00;;;;;;5099331;28;20118;-58
2023/09/15 09:30:37;;;;;;;8.35;3.10;;;17.20;1.00;;;;;;5099114;28;20040;-58
2023/09/15 09:33:04;;;;;;;10.57;3.88;;;17.30;1.00;;;;;;5099332;28;20059;-57
2023/09/15 09:35:30;;;;;;;9.07;4.07;;;17.40;1.00;;;;;;5098618;28;20056;-57
2023/09/15 09:37:59;;;;;;;9.32;3.28;;;17.40;1.00;;;;;;5099804;28;20039;-58
2023/09/15 09:40:25;;;;;;;9.25;3.45;;;17.40;1.00;;;;;;5098550;28;20047;-58
2023/09/15 09:42:52;;;;;;;7.57;3.22;;;17.60;1.00;;;;;;5099885;28;20097;-56
2023/09/15 09:45:25;;;;;;;7.70;2.95;;;17.70;1.00;;;;;;5099101;28;20044;-59
2023/09/15 09:47:50;;;;;;;10.25;3.13;;;17.70;1.00;;;;;;5098823;28;20051;-58
2023/09/15 09:50:16;;;;;;;8.45;3.05;;;17.80;1.00;;;;;;5099392;28;20036;-57
2023/09/15 09:52:42;;;;;;;8.82;3.10;;;17.80;1.00;;;;;;5098158;28;20071;-59
2023/09/15 09:55:09;;;;;;;9.63;3.83;;;18.00;1.00;;;;;;5099819;28;20433;-58
2023/09/15 09:57:38;;;;;;;10.13;3.80;;;18.00;1.00;;;;;;5098265;28;20044;-57
2023/09/15 10:00:09;;;;;;;6.93;3.25;;;18.10;1.00;;;;;;5098127;28;20048;-58
2023/09/15 10:02:40;;;;;;;7.22;3.30;;;18.10;1.00;;;;;;5099054;28;20254;-57
2023/09/15 10:05:06;;;;;;;10.20;3.47;;;18.10;1.00;;;;;;5098338;28;20055;-58
2023/09/15 10:07:33;;;;;;;12.40;4.57;;;18.20;1.00;;;;;;5101241;28;20036;-57
2023/09/15 10:09:59;;;;;;;10.23;4.00;;;18.20;1.00;;;;;;5102352;28;20043;-58
2023/09/15 10:12:25;;;;;;;9.63;3.35;;;18.20;1.00;;;;;;5102136;28;20529;-58
2023/09/15 10:14:52;;;;;;;10.40;3.25;;;18.20;1.00;;;;;;5102453;28;20055;-58
2023/09/15 10:17:22;;;;;;;7.55;3.55;;;18.30;1.00;;;;;;5103483;28;20043;-57
2023/09/15 10:19:48;;;;;;;8.73;3.63;;;18.40;1.00;;;;;;5102611;28;20044;-57
2023/09/15 10:22:16;;;;;;;10.63;4.30;;;18.50;1.00;;;;;;5102095;28;20044;-58
2023/09/15 10:24:47;;;;;;;10.23;5.07;;;18.50;1.00;;;;;;5103097;28;20078;-57
2023/09/15 10:27:14;;;;;;;9.65;4.15;;;18.50;1.00;;;;;;5101992;28;20089;-58
2023/09/15 10:29:46;;;;;;;8.45;3.38;;;18.40;1.00;;;;;;5103260;28;20079;-57
2023/09/15 10:32:18;;;;;;;;;;;18.50;1.00;;;;;;5102512;28;20032;-57
2023/09/15 10:34:45;;;;;;;;;;;18.70;1.00;;;;;;5102863;28;19956;-58
2023/09/15 10:37:10;;;;;;;9.77;3.63;;;18.60;1.00;;;;;;5101185;28;19930;-55
2023/09/15 10:39:41;;;;;;;9.30;3.97;;;18.60;1.00;;;;;;5101654;28;20047;-58
2023/09/15 10:42:13;;;;;;;10.55;3.65;;;18.70;1.00;;;;;;5102994;28;20048;-57
2023/09/15 10:44:41;;;;;;;8.60;3.70;;;18.70;1.00;;;;;;5101579;28;20122;-58
2023/09/15 10:47:17;;;;;;;7.53;3.47;;;18.70;1.00;;;;;;5103094;28;20040;-57
2023/09/15 10:49:53;;;;;;;9.90;3.80;;;18.80;1.00;;;;;;5102002;28;20039;-58
2023/09/15 10:52:34;;;;;;;8.35;2.97;;;18.90;1.00;;;;;;5100385;28;20044;-58
2023/09/15 10:55:00;;;;;;;7.90;2.93;;;19.00;1.00;;;;;;5102855;28;20138;-57
2023/09/15 10:57:26;;;;;;;8.70;3.58;;;19.10;1.00;;;;;;5101225;28;20056;-57
2023/09/15 10:59:54;;;;;;;8.00;3.63;;;19.20;1.00;;;;;;5102761;28;20055;-57
2023/09/15 11:02:20;;;;;;;8.52;3.92;;;19.20;1.00;;;;;;5101889;28;20036;-58
2023/09/15 11:04:47;;;;;;;8.27;3.88;;;19.20;1.00;;;;;;5100449;28;20556;-58
2023/09/15 11:07:14;;;;;;;9.02;3.15;;;19.30;1.00;;;;;;5102328;28;20051;-56
2023/09/15 11:09:42;;;;;;;8.15;3.40;;;19.30;1.00;;;;;;5101045;28;20059;-57
2023/09/15 11:12:10;;;;;;;10.32;3.35;;;19.30;1.00;;;;;;5101102;28;20048;-57
2023/09/15 11:14:36;;;;;;;8.38;3.25;;;19.40;1.00;;;;;;5100744;28;20044;-57
2023/09/15 11:17:03;;;;;;;8.52;3.28;;;19.50;1.00;;;;;;5102166;28;20070;-58
2023/09/15 11:19:30;;;;;;;9.32;2.92;;;19.50;1.00;;;;;;5100800;28;20063;-58
2023/09/15 11:21:56;;;;;;;9.02;3.70;;;19.60;1.00;;;;;;5101327;28;20048;-58
2023/09/15 11:24:22;;;;;;;7.35;3.15;;;19.70;1.00;;;;;;5101792;28;20044;-57
2023/09/15 11:26:50;;;;;;;8.07;3.15;;;19.60;1.00;;;;;;5100761;28;20115;-58
2023/09/15 11:29:17;;;;;;;8.75;3.28;;;19.70;1.00;;;;;;5101956;28;20059;-57
2023/09/15 11:31:44;;;;;;;9.30;3.78;;;19.80;1.00;;;;;;5100405;28;20112;-58
2023/09/15 11:34:15;;;;;;;8.68;3.08;;;19.80;1.00;;;;;;5101888;28;20086;-58
2023/09/15 11:36:42;;;;;;;7.10;2.80;;;19.80;1.00;;;;;;5100975;28;20569;-57
2023/09/15 11:39:12;;;;;;;7.43;2.92;;;19.90;1.00;;;;;;5100826;28;20048;-57
2023/09/15 11:41:55;;;;;;;7.03;2.90;;;19.90;1.00;;;;;;5101527;28;20071;-57
2023/09/15 11:44:21;;;;;;;8.07;3.25;;;19.80;1.00;;;;;;5100342;28;20048;-59
2023/09/15 11:46:51;;;;;;;8.68;3.42;;;19.70;1.00;;;;;;5101633;28;20059;-58
2023/09/15 11:49:19;;;;;;;7.72;3.25;;;19.60;1.00;;;;;;5100362;28;20448;-57
2023/09/15 11:51:46;;;;;;;7.22;3.38;;;19.60;1.00;;;;;;5100933;28;20043;-58
2023/09/15 11:54:12;;;;;;;8.80;3.72;;;19.80;1.00;;;;;;5101157;28;20044;-56
2023/09/15 11:56:38;;;;;;;7.25;2.92;;;19.80;1.00;;;;;;5099782;28;20055;-58
2023/09/15 11:59:06;;;;;;;7.95;4.13;;;19.80;1.00;;;;;;5100930;28;20055;-57
2023/09/15 12:01:32;;;;;;;10.30;3.17;;;19.90;1.00;;;;;;5099879;28;20040;-57
2023/09/15 12:03:59;;;;;;;7.13;2.67;;;19.90;1.00;;;;;;5099834;28;20067;-57
2023/09/15 12:06:26;;;;;;;9.65;3.10;;;20.00;1.00;;;;;;5100193;28;20062;-58
2023/09/15 12:08:52;;;;;;;7.35;2.60;;;19.90;1.00;;;;;;5100585;28;20052;-56
2023/09/15 12:11:19;;;;;;;8.88;3.35;;;19.90;1.00;;;;;;5099416;28;20102;-58
2023/09/15 12:13:51;;;;;;;8.18;2.78;;;20.00;1.00;;;;;;5099927;28;20040;-58
2023/09/15 12:16:19;;;;;;;8.60;3.00;;;20.10;1.00;;;;;;5100820;28;20103;-57
2023/09/15 12:18:46;;;;;;;7.38;3.00;;;20.10;1.00;;;;;;5099569;28;20043;-57
2023/09/15 12:21:13;;;;;;;7.80;2.60;;;20.30;1.00;;;;;;5101274;28;20044;-57
2023/09/15 12:23:39;;;;;;;8.15;2.45;;;20.30;1.00;;;;;;5099992;28;20114;-57
2023/09/15 12:26:05;;;;;;;9.25;3.05;;;20.40;1.00;;;;;;5100159;28;20488;-58
2023/09/15 12:28:32;;;;;;;6.75;2.60;;;20.50;1.00;;;;;;5100510;28;20351;-57
2023/09/15 12:30:59;;;;;;;6.97;2.42;;;20.50;1.00;;;;;;5098851;28;20516;-57
2023/09/15 12:33:26;;;;;;;7.63;2.50;;;20.40;1.00;;;;;;5100889;28;20434;-57
2023/09/15 12:35:52;;;;;;;7.45;2.80;;;20.50;1.00;;;;;;5099408;28;20078;-58
2023/09/15 12:38:18;;;;;;;7.90;2.33;;;20.60;1.00;;;;;;5100957;28;20043;-57
2023/09/15 12:40:45;;;;;;;6.65;2.35;;;20.50;1.00;;;;;;5099558;28;20070;-57
2023/09/15 12:43:12;;;;;;;8.32;2.30;;;20.40;1.00;;;;;;5100201;28;20577;-57
2023/09/15 12:45:38;;;;;;;6.60;2.28;;;20.50;1.00;;;;;;5099892;28;20580;-57
2023/09/15 12:48:04;;;;;;;7.95;2.80;;;20.40;1.00;;;;;;5099511;28;20056;-57